createdAt,value
2022-09-23T06:02:15.888Z,2.53
2022-09-23T06:05:19.318Z,2.60
2022-09-23T06:08:27.511Z,2.50
2022-09-23T06:11:31.438Z,2.53
2022-09-23T06:14:34.209Z,2.40
2022-09-23T06:17:39.993Z,2.63
2022-09-23T06:20:42.705Z,2.40
2022-09-23T06:23:46.322Z,3.05
2022-09-23T06:26:52.083Z,3.00
2022-09-23T06:29:55.185Z,2.53
2022-09-23T06:32:58.965Z,2.75
2022-09-23T06:36:04.644Z,2.88
2022-09-23T06:39:07.315Z,2.67
2022-09-23T06:42:10.204Z,2.67
2022-09-23T06:45:15.060Z,2.57
2022-09-23T06:48:17.920Z,2.85
2022-09-23T06:51:21.898Z,2.63
2022-09-23T06:54:28.544Z,2.58
2022-09-23T06:57:33.290Z,2.10
2022-09-23T07:00:36.932Z,2.57
2022-09-23T07:03:39.783Z,2.17
2022-09-23T07:06:44.209Z,1.80
2022-09-23T07:09:58.660Z,2.35
2022-09-23T07:13:03.346Z,2.07
2022-09-23T07:16:06.186Z,2.40
2022-09-23T07:19:09.020Z,2.25
2022-09-23T07:22:12.191Z,2.53
2022-09-23T07:25:15.630Z,2.38
2022-09-23T07:28:19.391Z,2.73
2022-09-23T07:31:35.771Z,2.50
2022-09-23T07:34:43.934Z,2.40
2022-09-23T07:37:47.386Z,2.50
2022-09-23T07:40:50.099Z,2.10
2022-09-23T07:43:55.579Z,2.30
2022-09-23T07:47:00.018Z,2.47
2022-09-23T07:50:02.792Z,2.72
2022-09-23T07:53:06.920Z,2.50
2022-09-23T07:56:10.135Z,2.40
2022-09-23T07:59:18.013Z,2.40
2022-09-23T08:02:21.008Z,2.13
2022-09-23T08:05:24.206Z,2.30
2022-09-23T08:08:28.197Z,2.28
2022-09-23T08:11:31.435Z,2.90
2022-09-23T08:14:34.103Z,2.50
2022-09-23T08:17:37.003Z,2.60
2022-09-23T08:20:47.431Z,2.55
2022-09-23T08:23:51.188Z,2.47
2022-09-23T08:26:55.032Z,3.00
2022-09-23T08:30:01.196Z,2.73
2022-09-23T08:33:12.087Z,2.13
2022-09-23T08:36:16.164Z,1.88
2022-09-23T08:39:20.563Z,2.15
2022-09-23T08:42:32.519Z,1.85
2022-09-23T08:45:37.507Z,2.07
2022-09-23T08:48:44.763Z,2.37
2022-09-23T08:51:48.696Z,2.70
2022-09-23T08:54:55.248Z,2.33
2022-09-23T08:58:35.421Z,2.00
2022-09-23T09:02:01.433Z,2.27
2022-09-23T09:05:09.497Z,2.07
2022-09-23T09:08:38.422Z,2.35
2022-09-23T09:11:50.875Z,2.33
2022-09-23T09:15:05.326Z,2.00
2022-09-23T09:18:23.047Z,2.60
2022-09-23T09:21:38.785Z,1.83
2022-09-23T09:24:45.909Z,2.00
2022-09-23T09:27:52.773Z,2.03
2022-09-23T09:31:00.065Z,1.85
2022-09-23T09:34:03.266Z,2.07
2022-09-23T09:37:18.991Z,1.60
2022-09-23T09:40:22.101Z,2.00
2022-09-23T09:43:32.449Z,1.55
2022-09-23T09:47:56.126Z,1.88
2022-09-23T09:51:26.310Z,1.93
2022-09-23T09:54:30.047Z,2.07
2022-09-23T09:57:38.704Z,1.65
2022-09-23T10:00:46.235Z,1.65
2022-09-23T10:03:53.188Z,1.90
2022-09-23T10:07:08.243Z,1.97
2022-09-23T10:10:32.401Z,2.30
2022-09-23T10:13:38.438Z,2.00
2022-09-23T10:16:42.293Z,2.30
2022-09-23T10:20:01.029Z,1.75
2022-09-23T10:23:15.806Z,2.30
2022-09-23T10:26:26.875Z,1.93
2022-09-23T10:29:33.404Z,2.30
2022-09-23T10:32:43.484Z,2.30
2022-09-23T10:35:57.405Z,3.08
2022-09-23T10:39:29.193Z,3.10
2022-09-23T10:42:50.951Z,2.83
2022-09-23T10:46:17.979Z,2.97
2022-09-23T10:49:35.780Z,3.58
2022-09-23T10:52:46.810Z,3.08
2022-09-23T10:56:09.633Z,3.13
2022-09-23T10:59:33.379Z,2.87
2022-09-23T11:03:00.097Z,3.42
2022-09-23T11:06:06.282Z,3.17
2022-09-23T11:09:22.829Z,2.80
2022-09-23T11:12:59.033Z,2.90
2022-09-23T11:16:32.224Z,2.33
2022-09-23T11:20:03.428Z,2.63
2022-09-23T11:23:27.571Z,2.33
2022-09-23T11:27:26.249Z,2.10
2022-09-23T11:30:44.438Z,1.90
